createdAt,value
2022-10-04T00:01:48.711Z,18.66
2022-10-04T00:04:22.938Z,18.61
2022-10-04T00:07:00.550Z,18.64
2022-10-04T00:09:35.383Z,18.46
2022-10-04T00:12:05.668Z,18.55
2022-10-04T00:14:38.371Z,18.32
2022-10-04T00:17:13.216Z,18.38
2022-10-04T00:19:45.166Z,18.44
2022-10-04T00:22:23.887Z,18.18
2022-10-04T00:25:17.471Z,18.18
2022-10-04T00:28:26.133Z,18.12
2022-10-04T00:31:19.202Z,18.14
2022-10-04T00:33:50.146Z,18.08
2022-10-04T00:36:37.488Z,17.97
2022-10-04T00:39:25.093Z,18.01
2022-10-04T00:42:02.667Z,17.98
2022-10-04T00:44:38.994Z,18.03
2022-10-04T00:47:20.370Z,17.96
2022-10-04T00:49:54.433Z,18.10
2022-10-04T00:52:27.315Z,18.06
2022-10-04T00:54:59.687Z,17.93
2022-10-04T00:57:32.717Z,18.03
2022-10-04T01:00:05.357Z,18.07
2022-10-04T01:02:38.617Z,18.04
2022-10-04T01:05:10.744Z,18.10
2022-10-04T01:07:43.533Z,18.15
2022-10-04T01:10:19.578Z,18.12
2022-10-04T01:12:53.711Z,18.07
2022-10-04T01:15:30.326Z,18.01
2022-10-04T01:18:14.439Z,18.02
2022-10-04T01:20:53.894Z,18.03
2022-10-04T01:23:35.573Z,17.94
2022-10-04T01:26:06.405Z,17.91
2022-10-04T01:28:35.772Z,17.98
2022-10-04T01:31:04.076Z,17.96
2022-10-04T01:33:32.340Z,17.93
2022-10-04T01:36:00.857Z,17.93
2022-10-04T01:38:29.029Z,17.93
2022-10-04T01:41:01.050Z,17.92
2022-10-04T01:43:36.264Z,17.92
2022-10-04T01:46:09.747Z,17.93
2022-10-04T01:48:40.544Z,17.92
2022-10-04T01:51:14.313Z,17.93
2022-10-04T01:53:48.681Z,17.91
2022-10-04T01:56:22.576Z,17.88
2022-10-04T01:58:53.734Z,17.83
2022-10-04T02:01:31.217Z,17.80
2022-10-04T02:04:03.691Z,17.71
2022-10-04T02:06:39.369Z,17.61
2022-10-04T02:09:11.970Z,17.58
2022-10-04T02:11:42.784Z,17.54
2022-10-04T02:14:16.416Z,17.49
2022-10-04T02:16:47.000Z,17.46
2022-10-04T02:19:17.322Z,17.43
2022-10-04T02:21:46.338Z,17.38
2022-10-04T02:24:15.125Z,17.33
2022-10-04T02:26:50.474Z,17.28
2022-10-04T02:29:19.566Z,17.24
2022-10-04T02:32:07.546Z,17.20
2022-10-04T02:34:36.233Z,17.16
2022-10-04T02:37:05.398Z,17.11
2022-10-04T02:39:38.220Z,17.06
2022-10-04T02:42:15.284Z,16.99
2022-10-04T02:44:47.060Z,16.96
2022-10-04T02:47:19.502Z,16.91
2022-10-04T02:49:50.761Z,16.87
2022-10-04T02:52:24.414Z,16.84
2022-10-04T02:54:58.083Z,16.80
2022-10-04T02:57:28.626Z,16.74
2022-10-04T03:00:11.614Z,16.67
2022-10-04T03:02:40.756Z,16.64
2022-10-04T03:05:11.745Z,16.59
2022-10-04T03:07:40.830Z,16.56
2022-10-04T03:10:12.453Z,16.53
2022-10-04T03:12:42.592Z,16.51
2022-10-04T03:15:13.122Z,16.47
2022-10-04T03:17:42.818Z,16.45
2022-10-04T03:20:14.710Z,16.42
2022-10-04T03:22:47.085Z,16.41
2022-10-04T03:25:19.809Z,16.38
2022-10-04T03:27:51.815Z,16.30
2022-10-04T03:30:20.696Z,16.25
2022-10-04T03:32:50.381Z,16.28
2022-10-04T03:35:28.595Z,16.27
2022-10-04T03:37:59.009Z,16.27
2022-10-04T03:40:31.383Z,16.26
2022-10-04T03:43:03.561Z,16.29
2022-10-04T03:45:34.384Z,16.31
2022-10-04T03:48:06.561Z,16.31
2022-10-04T03:50:39.291Z,16.28
2022-10-04T03:53:13.094Z,16.26
2022-10-04T03:55:45.174Z,16.25
2022-10-04T03:58:18.948Z,16.23
2022-10-04T04:01:01.717Z,16.21
2022-10-04T04:03:35.831Z,16.21
2022-10-04T04:06:10.482Z,16.17
2022-10-04T04:08:43.274Z,16.14
2022-10-04T04:11:19.876Z,16.13
2022-10-04T04:13:56.884Z,16.15
2022-10-04T04:16:26.385Z,16.16
2022-10-04T04:18:58.713Z,16.14
2022-10-04T04:21:28.290Z,16.12
2022-10-04T04:24:00.704Z,16.13
2022-10-04T04:26:36.860Z,16.10
2022-10-04T04:29:15.584Z,16.11
2022-10-04T04:31:47.193Z,16.10
2022-10-04T04:34:19.823Z,16.13
2022-10-04T04:36:47.925Z,16.12
2022-10-04T04:39:36.332Z,16.11
2022-10-04T04:42:08.417Z,16.11
2022-10-04T04:44:39.916Z,16.11
2022-10-04T04:47:19.319Z,16.13
2022-10-04T04:49:47.736Z,16.15
2022-10-04T04:52:20.896Z,16.15
2022-10-04T04:54:50.024Z,16.18
2022-10-04T04:57:18.557Z,16.18
2022-10-04T04:59:51.642Z,16.18
2022-10-04T05:02:35.386Z,16.17
2022-10-04T05:05:18.206Z,16.20
2022-10-04T05:07:46.932Z,16.20
2022-10-04T05:10:28.882Z,16.20
2022-10-04T05:12:59.507Z,16.20
2022-10-04T05:15:34.408Z,16.22
2022-10-04T05:18:03.125Z,16.23
2022-10-04T05:20:34.322Z,16.22
2022-10-04T05:23:02.741Z,16.24
2022-10-04T05:25:34.295Z,16.27
2022-10-04T05:28:03.297Z,16.29
2022-10-04T05:30:48.737Z,16.30
2022-10-04T05:33:24.520Z,16.33
2022-10-04T05:36:09.622Z,16.35
2022-10-04T05:38:44.406Z,16.42
2022-10-04T05:41:21.754Z,16.49
2022-10-04T05:43:51.743Z,16.47
2022-10-04T05:46:26.266Z,16.53
2022-10-04T05:48:57.024Z,16.57
2022-10-04T05:51:28.771Z,16.61
2022-10-04T05:54:00.782Z,16.65
2022-10-04T05:57:12.933Z,16.73
2022-10-04T05:59:53.291Z,16.86
2022-10-04T06:02:37.038Z,16.89
2022-10-04T06:05:12.500Z,16.97
2022-10-04T06:07:44.186Z,17.07
2022-10-04T06:10:50.481Z,17.14
2022-10-04T06:13:32.469Z,17.26
2022-10-04T06:16:16.139Z,17.25
2022-10-04T06:19:15.008Z,17.29
2022-10-04T06:22:02.385Z,17.30
2022-10-04T06:24:34.144Z,17.29
2022-10-04T06:27:09.845Z,17.26
2022-10-04T06:29:42.913Z,17.31
2022-10-04T06:32:50.638Z,17.35
2022-10-04T06:35:36.245Z,17.38
2022-10-04T06:38:23.573Z,17.42
2022-10-04T06:41:24.281Z,17.48
2022-10-04T06:44:11.874Z,17.58
2022-10-04T06:46:48.076Z,17.67
2022-10-04T06:49:36.201Z,17.74
2022-10-04T06:52:47.365Z,17.80
2022-10-04T06:55:39.458Z,17.90
2022-10-04T06:58:25.654Z,18.00
2022-10-04T07:01:00.424Z,18.04
2022-10-04T07:03:36.715Z,18.09
2022-10-04T07:06:06.696Z,18.15
2022-10-04T07:08:40.523Z,18.23
2022-10-04T07:11:16.469Z,18.32
2022-10-04T07:13:56.490Z,18.44
2022-10-04T07:16:35.434Z,18.50
2022-10-04T07:19:24.940Z,18.58
2022-10-04T07:22:00.254Z,18.70
2022-10-04T07:24:40.634Z,18.67
2022-10-04T07:27:14.826Z,18.77
2022-10-04T07:29:46.676Z,18.88
2022-10-04T07:32:22.352Z,18.97
2022-10-04T07:34:55.531Z,19.05
2022-10-04T07:37:27.742Z,19.10
2022-10-04T07:40:02.730Z,19.16
2022-10-04T07:42:39.419Z,19.28
2022-10-04T07:45:17.616Z,19.39
2022-10-04T07:47:46.096Z,19.50
2022-10-04T07:50:25.528Z,19.63
2022-10-04T07:53:05.957Z,19.78
2022-10-04T07:55:46.343Z,19.81
2022-10-04T07:58:25.105Z,19.73
2022-10-04T08:01:00.406Z,19.90
2022-10-04T08:03:49.164Z,19.97
2022-10-04T08:06:23.074Z,20.03
2022-10-04T08:09:24.194Z,20.14
2022-10-04T08:12:03.129Z,20.21
2022-10-04T08:14:50.547Z,20.23
2022-10-04T08:17:28.273Z,20.28
2022-10-04T08:20:05.725Z,20.33
2022-10-04T08:22:43.804Z,20.48
2022-10-04T08:25:22.368Z,20.56
2022-10-04T08:28:32.430Z,20.57
2022-10-04T08:31:13.125Z,20.65
2022-10-04T08:33:56.076Z,20.69
2022-10-04T08:36:39.009Z,20.76
2022-10-04T08:39:20.758Z,20.84
2022-10-04T08:42:24.173Z,20.86
2022-10-04T08:45:38.820Z,21.03
2022-10-04T08:48:43.206Z,21.02
2022-10-04T08:51:44.644Z,21.09
2022-10-04T08:54:40.867Z,21.26
2022-10-04T08:57:27.139Z,21.29
2022-10-04T09:00:15.213Z,21.38
2022-10-04T09:03:26.752Z,21.40
2022-10-04T09:05:58.313Z,21.42
2022-10-04T09:09:01.267Z,21.31
2022-10-04T09:12:00.975Z,21.16
2022-10-04T09:14:56.174Z,21.46
2022-10-04T09:17:39.486Z,21.56
2022-10-04T09:20:39.471Z,21.77
2022-10-04T09:23:23.089Z,21.92
2022-10-04T09:26:08.952Z,21.78
2022-10-04T09:29:29.935Z,21.92
2022-10-04T09:32:20.428Z,21.89
2022-10-04T09:35:10.124Z,22.02
2022-10-04T09:37:58.821Z,22.20
2022-10-04T09:41:03.820Z,22.17
2022-10-04T09:44:04.429Z,22.21
2022-10-04T09:46:56.689Z,22.44
2022-10-04T09:49:57.380Z,22.60
2022-10-04T09:52:40.318Z,22.72
2022-10-04T09:55:23.365Z,22.71
2022-10-04T09:58:25.233Z,22.81
2022-10-04T10:01:00.857Z,22.87
2022-10-04T10:03:58.875Z,22.81
2022-10-04T10:06:42.620Z,22.66
2022-10-04T10:09:44.533Z,22.73
2022-10-04T10:12:58.889Z,22.96
2022-10-04T10:15:36.516Z,23.13
2022-10-04T10:18:15.322Z,23.33
2022-10-04T10:21:04.659Z,23.28
2022-10-04T10:23:54.426Z,23.23
2022-10-04T10:26:39.342Z,23.10
2022-10-04T10:29:28.260Z,23.24
2022-10-04T10:32:17.943Z,23.22
2022-10-04T10:35:14.362Z,23.35
2022-10-04T10:38:03.611Z,23.46
2022-10-04T10:40:50.619Z,23.40
2022-10-04T10:43:41.605Z,23.67
2022-10-04T10:46:49.465Z,23.73
2022-10-04T10:49:34.053Z,23.57
2022-10-04T10:52:39.483Z,23.63
2022-10-04T10:55:30.792Z,23.57
2022-10-04T10:58:15.974Z,23.62
2022-10-04T11:01:00.931Z,23.59
2022-10-04T11:03:52.014Z,23.43
2022-10-04T11:07:14.054Z,23.33
2022-10-04T11:10:31.038Z,23.46
2022-10-04T11:13:36.826Z,23.55
2022-10-04T11:16:26.091Z,23.56
2022-10-04T11:19:29.294Z,23.46
2022-10-04T11:22:44.743Z,23.50
2022-10-04T11:25:37.184Z,23.40
2022-10-04T11:28:12.519Z,23.60
2022-10-04T11:31:32.653Z,23.60
2022-10-04T11:34:19.497Z,23.69
2022-10-04T11:37:04.861Z,23.39
2022-10-04T11:39:49.991Z,23.59
2022-10-04T11:42:30.016Z,23.60
2022-10-04T11:45:22.507Z,23.70
2022-10-04T11:48:02.465Z,23.80
2022-10-04T11:50:51.386Z,23.99
2022-10-04T11:54:04.533Z,24.07
2022-10-04T11:57:04.950Z,24.25
2022-10-04T11:59:46.725Z,24.16
2022-10-04T12:02:57.434Z,24.31
2022-10-04T12:05:43.264Z,24.38
2022-10-04T12:08:20.408Z,24.36
2022-10-04T12:11:12.892Z,24.33
2022-10-04T12:13:57.419Z,24.40
2022-10-04T12:16:49.222Z,24.52
2022-10-04T12:19:40.282Z,24.60
2022-10-04T12:22:27.054Z,24.58
2022-10-04T12:25:37.599Z,24.64
2022-10-04T12:28:21.479Z,24.97
2022-10-04T12:31:20.116Z,24.96
2022-10-04T12:33:57.318Z,25.05
2022-10-04T12:36:35.363Z,25.08
2022-10-04T12:39:28.454Z,25.20
2022-10-04T12:42:09.004Z,25.20
2022-10-04T12:44:50.283Z,25.29
2022-10-04T12:47:51.825Z,25.17
2022-10-04T12:50:30.240Z,25.31
2022-10-04T12:53:11.034Z,25.36
2022-10-04T12:55:53.569Z,25.32
2022-10-04T12:58:30.122Z,25.50
2022-10-04T13:01:12.125Z,25.47
2022-10-04T13:04:07.610Z,25.31
2022-10-04T13:06:44.548Z,25.23
2022-10-04T13:09:20.212Z,25.37
2022-10-04T13:12:18.065Z,25.34
2022-10-04T13:14:58.364Z,25.32
2022-10-04T13:17:41.038Z,25.46
2022-10-04T13:20:38.598Z,25.50
2022-10-04T13:23:13.022Z,25.34
2022-10-04T13:26:03.329Z,25.46
2022-10-04T13:28:41.561Z,25.55
2022-10-04T13:31:16.755Z,25.68
2022-10-04T13:33:52.278Z,25.77
2022-10-04T13:36:29.354Z,25.70
2022-10-04T13:39:25.166Z,25.72
2022-10-04T13:42:18.350Z,25.77
2022-10-04T13:45:05.113Z,25.57
2022-10-04T13:47:49.362Z,25.67
2022-10-04T13:50:36.193Z,25.45
2022-10-04T13:53:38.981Z,25.46
2022-10-04T13:56:40.117Z,25.50
2022-10-04T13:59:17.526Z,25.36
2022-10-04T14:02:14.496Z,25.12
2022-10-04T14:05:17.254Z,25.17
2022-10-04T14:07:59.269Z,25.32
2022-10-04T14:10:47.317Z,25.20
2022-10-04T14:13:55.689Z,25.16
2022-10-04T14:16:46.669Z,25.18
2022-10-04T14:19:40.642Z,25.19
2022-10-04T14:22:45.469Z,25.12
2022-10-04T14:25:43.693Z,24.92
2022-10-04T14:28:26.230Z,24.94
2022-10-04T14:31:13.326Z,24.94
2022-10-04T14:34:03.669Z,24.79
2022-10-04T14:37:12.329Z,24.67
2022-10-04T14:40:08.673Z,24.68
2022-10-04T14:42:50.233Z,24.62
2022-10-04T14:45:37.834Z,24.67
2022-10-04T14:48:24.858Z,24.49
2022-10-04T14:51:15.863Z,24.26
2022-10-04T14:53:55.978Z,24.42
2022-10-04T14:56:43.745Z,24.42
2022-10-04T14:59:30.646Z,24.35
2022-10-04T15:02:37.005Z,24.33
2022-10-04T15:05:31.605Z,24.25
2022-10-04T15:08:28.998Z,24.30
2022-10-04T15:11:00.042Z,24.24
2022-10-04T15:13:34.740Z,24.20
2022-10-04T15:16:17.321Z,24.02
2022-10-04T15:18:53.200Z,24.09
2022-10-04T15:21:34.651Z,23.99
2022-10-04T15:24:24.108Z,23.93
2022-10-04T15:27:08.798Z,23.90
2022-10-04T15:29:46.864Z,23.88
2022-10-04T15:32:28.991Z,23.78
2022-10-04T15:35:14.739Z,23.67
2022-10-04T15:37:47.551Z,23.57
2022-10-04T15:40:42.819Z,23.57
2022-10-04T15:43:28.093Z,23.54
2022-10-04T15:46:24.996Z,23.44
2022-10-04T15:49:36.791Z,23.37
2022-10-04T15:52:29.038Z,23.36
2022-10-04T15:55:13.106Z,23.26
2022-10-04T15:58:05.604Z,23.13
2022-10-04T16:00:49.045Z,23.07
2022-10-04T16:03:29.203Z,23.01
2022-10-04T16:06:02.802Z,22.93
2022-10-04T16:08:56.968Z,22.85
2022-10-04T16:11:34.716Z,22.77
2022-10-04T16:14:20.333Z,22.68
2022-10-04T16:17:21.852Z,22.60
2022-10-04T16:20:05.946Z,22.51
2022-10-04T16:22:35.733Z,22.45
2022-10-04T16:25:37.283Z,22.34
2022-10-04T16:28:12.943Z,22.30
2022-10-04T16:30:48.006Z,22.17
2022-10-04T16:33:31.190Z,22.08
2022-10-04T16:36:10.024Z,22.03
2022-10-04T16:39:07.587Z,21.94
2022-10-04T16:41:44.370Z,21.89
2022-10-04T16:44:35.129Z,21.78
2022-10-04T16:47:18.954Z,21.74
2022-10-04T16:49:53.673Z,21.63
2022-10-04T16:53:04.386Z,21.53
2022-10-04T16:55:53.191Z,21.48
2022-10-04T16:58:52.484Z,21.37
2022-10-04T17:01:44.302Z,21.30
2022-10-04T17:04:40.100Z,21.21
2022-10-04T17:07:19.743Z,21.09
2022-10-04T17:09:50.377Z,20.99
2022-10-04T17:12:20.823Z,20.90
2022-10-04T17:15:11.053Z,20.84
2022-10-04T17:17:47.104Z,20.77
2022-10-04T17:20:29.639Z,20.66
2022-10-04T17:23:18.349Z,20.59
2022-10-04T17:25:57.137Z,20.51
2022-10-04T17:28:30.574Z,20.40
2022-10-04T17:31:12.621Z,20.32
2022-10-04T17:33:53.674Z,20.24
2022-10-04T17:36:39.164Z,20.20
2022-10-04T17:39:27.062Z,20.17
2022-10-04T17:42:10.360Z,20.13
2022-10-04T17:45:03.711Z,20.07
2022-10-04T17:47:57.820Z,20.04
2022-10-04T17:50:47.588Z,19.98
2022-10-04T17:53:39.239Z,19.96
2022-10-04T17:56:11.580Z,19.89
2022-10-04T17:58:45.613Z,19.88
2022-10-04T18:01:19.480Z,19.85
2022-10-04T18:03:54.766Z,19.78
2022-10-04T18:06:33.452Z,19.74
2022-10-04T18:09:05.768Z,19.72
2022-10-04T18:11:47.074Z,19.68
2022-10-04T18:14:43.117Z,19.65
2022-10-04T18:17:22.710Z,19.65
2022-10-04T18:20:03.049Z,19.57
2022-10-04T18:22:46.891Z,19.53
2022-10-04T18:25:17.673Z,19.49
2022-10-04T18:27:52.855Z,19.49
2022-10-04T18:30:22.588Z,19.42
2022-10-04T18:32:52.708Z,19.42
2022-10-04T18:35:26.618Z,19.40
2022-10-04T18:37:57.261Z,19.36
2022-10-04T18:40:28.511Z,19.32
2022-10-04T18:43:00.457Z,19.27
2022-10-04T18:45:30.077Z,19.22
2022-10-04T18:48:01.274Z,19.18
2022-10-04T18:50:43.547Z,19.14
2022-10-04T18:53:33.919Z,19.08
2022-10-04T18:56:04.446Z,19.02
2022-10-04T18:59:04.571Z,18.92
2022-10-04T19:02:03.946Z,18.86
2022-10-04T19:04:42.257Z,18.84
2022-10-04T19:07:14.368Z,18.81
2022-10-04T19:10:04.494Z,18.76
2022-10-04T19:12:42.512Z,18.76
2022-10-04T19:15:23.470Z,18.71
2022-10-04T19:18:00.960Z,18.67
2022-10-04T19:20:37.747Z,18.60
2022-10-04T19:23:15.802Z,18.60
2022-10-04T19:26:10.018Z,18.56
2022-10-04T19:28:38.466Z,18.56
2022-10-04T19:31:17.773Z,18.53
2022-10-04T19:33:51.266Z,18.51
2022-10-04T19:36:36.504Z,18.48
2022-10-04T19:39:21.678Z,18.47
2022-10-04T19:41:57.428Z,18.43
2022-10-04T19:45:02.307Z,18.37
2022-10-04T19:47:48.909Z,18.36
2022-10-04T19:50:21.510Z,18.33
2022-10-04T19:52:54.357Z,18.29
2022-10-04T19:55:30.292Z,18.34
2022-10-04T19:58:09.874Z,18.31
2022-10-04T20:00:38.471Z,18.32
2022-10-04T20:03:11.508Z,18.33
2022-10-04T20:05:44.767Z,18.30
2022-10-04T20:08:14.558Z,18.28
2022-10-04T20:10:45.224Z,18.24
2022-10-04T20:13:23.337Z,18.20
2022-10-04T20:15:53.894Z,18.18
2022-10-04T20:19:09.654Z,18.14
2022-10-04T20:21:38.025Z,18.17
2022-10-04T20:24:17.696Z,18.08
2022-10-04T20:26:55.016Z,18.05
2022-10-04T20:30:05.107Z,17.99
2022-10-04T20:32:56.492Z,17.98
2022-10-04T20:36:06.988Z,17.94
2022-10-04T20:38:53.680Z,17.91
2022-10-04T20:42:02.543Z,17.85
2022-10-04T20:44:44.482Z,17.81
2022-10-04T20:47:23.987Z,17.76
2022-10-04T20:49:56.857Z,17.74
2022-10-04T20:52:28.434Z,17.72
2022-10-04T20:54:58.449Z,17.68
2022-10-04T20:57:26.899Z,17.66
2022-10-04T20:59:57.651Z,17.65
2022-10-04T21:02:28.509Z,17.61
2022-10-04T21:05:13.358Z,17.59
2022-10-04T21:07:41.635Z,17.55
2022-10-04T21:10:18.841Z,17.55
2022-10-04T21:12:49.015Z,17.57
2022-10-04T21:15:23.189Z,17.58
2022-10-04T21:18:03.735Z,17.55
2022-10-04T21:20:46.560Z,17.50
2022-10-04T21:23:21.382Z,17.56
2022-10-04T21:25:50.160Z,17.56
2022-10-04T21:28:39.552Z,17.57
2022-10-04T21:31:09.238Z,17.56
2022-10-04T21:33:38.142Z,17.47
2022-10-04T21:36:06.935Z,17.61
2022-10-04T21:38:35.615Z,17.64
2022-10-04T21:41:04.685Z,17.56
2022-10-04T21:43:33.038Z,17.48
2022-10-04T21:46:01.994Z,17.49
2022-10-04T21:48:31.519Z,17.48
2022-10-04T21:50:59.887Z,17.51
2022-10-04T21:53:28.137Z,17.45
2022-10-04T21:55:56.157Z,17.48
2022-10-04T21:58:26.288Z,17.50
2022-10-04T22:00:54.609Z,17.60
2022-10-04T22:03:23.149Z,17.54
2022-10-04T22:05:52.516Z,17.49
2022-10-04T22:08:20.528Z,17.40
2022-10-04T22:10:48.836Z,17.43
2022-10-04T22:13:16.989Z,17.41
2022-10-04T22:15:45.082Z,17.36
2022-10-04T22:18:13.663Z,17.26
2022-10-04T22:20:41.742Z,17.35
2022-10-04T22:23:19.449Z,17.34
2022-10-04T22:25:48.009Z,17.28
2022-10-04T22:28:21.970Z,17.28
2022-10-04T22:30:52.162Z,17.33
2022-10-04T22:33:32.394Z,17.16
2022-10-04T22:36:14.638Z,17.17
2022-10-04T22:38:49.069Z,17.26
2022-10-04T22:41:19.444Z,17.29
2022-10-04T22:43:48.050Z,17.25
2022-10-04T22:46:19.269Z,17.26
2022-10-04T22:48:50.030Z,17.21
2022-10-04T22:51:18.234Z,17.19
2022-10-04T22:53:48.953Z,17.13
2022-10-04T22:56:17.486Z,17.15
2022-10-04T22:58:45.548Z,17.11
2022-10-04T23:01:16.190Z,17.10
2022-10-04T23:03:47.624Z,17.02
2022-10-04T23:06:16.314Z,17.00
2022-10-04T23:08:45.687Z,17.03
2022-10-04T23:11:15.214Z,17.00
2022-10-04T23:13:43.196Z,16.94
2022-10-04T23:16:15.852Z,16.90
2022-10-04T23:18:43.986Z,16.87
2022-10-04T23:21:23.085Z,16.85
2022-10-04T23:23:52.894Z,16.77
2022-10-04T23:26:24.968Z,16.75
2022-10-04T23:28:53.306Z,16.75
2022-10-04T23:31:24.797Z,16.74
2022-10-04T23:33:55.731Z,16.70
2022-10-04T23:36:24.450Z,16.67
2022-10-04T23:38:57.204Z,16.64
2022-10-04T23:41:27.342Z,16.57
2022-10-04T23:43:55.484Z,16.56
2022-10-04T23:46:24.618Z,16.51
2022-10-04T23:48:52.898Z,16.48
2022-10-04T23:51:21.169Z,16.44
2022-10-04T23:53:50.776Z,16.41
2022-10-04T23:56:22.151Z,16.36
2022-10-04T23:58:53.811Z,16.29
